In Rescue
 
Open Full Screen Window  High Contrast Mode
Wind Gusting 00 knots
03
May 25, 2022 8:59 PM EDT
Weather Information
Wind Direction
  090 °
Wind Speed
  03 kt (3 mph)
Wind Gust
  00 kt (0 mph)
Altimeter
29.95 in
Visibility
10 SM
Temperature
19° C
66° F
Dewpoint
17° C
63° F
Humidity
88%
Sky Condition
Scattered @ 4,500 ft
VFR

METAR KDUH 260059Z AUTO 09003KT 10SM SCT045 19/17 A2995 RMK AO2 T01900171

FAA Disclaimer: The data displayed is for advisory purposes only and is not to be used for flight planning or operations.